sensor_id;sensor_type;location;lat;lon;timestamp;P1;durP1;ratioP1;P2;durP2;ratioP2
15635;SDS011;7917;50.818;6.972;2022-08-21T00:01:13;16.23;;;7.78;;
15635;SDS011;7917;50.818;6.972;2022-08-21T00:03:42;15.25;;;8.68;;
15635;SDS011;7917;50.818;6.972;2022-08-21T00:06:10;17.73;;;8.07;;
15635;SDS011;7917;50.818;6.972;2022-08-21T00:08:39;14.90;;;8.32;;
15635;SDS011;7917;50.818;6.972;2022-08-21T00:11:06;16.10;;;7.68;;
15635;SDS011;7917;50.818;6.972;2022-08-21T00:13:34;16.85;;;7.63;;
15635;SDS011;7917;50.818;6.972;2022-08-21T00:16:02;12.93;;;7.50;;
15635;SDS011;7917;50.818;6.972;2022-08-21T00:18:30;14.68;;;7.70;;
15635;SDS011;7917;50.818;6.972;2022-08-21T00:20:57;12.20;;;7.72;;
15635;SDS011;7917;50.818;6.972;2022-08-21T00:23:25;12.45;;;7.97;;
15635;SDS011;7917;50.818;6.972;2022-08-21T00:25:53;14.40;;;8.50;;
15635;SDS011;7917;50.818;6.972;2022-08-21T00:28:20;13.32;;;8.02;;
15635;SDS011;7917;50.818;6.972;2022-08-21T00:30:47;18.48;;;9.38;;
15635;SDS011;7917;50.818;6.972;2022-08-21T00:33:15;14.48;;;11.10;;
15635;SDS011;7917;50.818;6.972;2022-08-21T00:35:43;17.40;;;10.38;;
15635;SDS011;7917;50.818;6.972;2022-08-21T00:38:10;16.20;;;10.15;;
15635;SDS011;7917;50.818;6.972;2022-08-21T00:40:40;16.05;;;10.20;;
15635;SDS011;7917;50.818;6.972;2022-08-21T00:43:11;14.25;;;9.32;;
15635;SDS011;7917;50.818;6.972;2022-08-21T00:45:39;15.00;;;9.10;;
15635;SDS011;7917;50.818;6.972;2022-08-21T00:48:07;15.95;;;11.07;;
15635;SDS011;7917;50.818;6.972;2022-08-21T00:50:35;20.90;;;11.07;;
15635;SDS011;7917;50.818;6.972;2022-08-21T00:53:06;17.15;;;10.55;;
15635;SDS011;7917;50.818;6.972;2022-08-21T00:55:36;11.15;;;8.48;;
15635;SDS011;7917;50.818;6.972;2022-08-21T00:58:04;15.90;;;10.48;;
15635;SDS011;7917;50.818;6.972;2022-08-21T01:00:37;22.25;;;14.57;;
15635;SDS011;7917;50.818;6.972;2022-08-21T01:03:08;18.77;;;13.98;;
15635;SDS011;7917;50.818;6.972;2022-08-21T01:05:37;16.23;;;10.75;;
15635;SDS011;7917;50.818;6.972;2022-08-21T01:08:05;17.20;;;11.23;;
15635;SDS011;7917;50.818;6.972;2022-08-21T01:10:33;18.35;;;11.27;;
15635;SDS011;7917;50.818;6.972;2022-08-21T01:13:01;15.88;;;11.02;;
15635;SDS011;7917;50.818;6.972;2022-08-21T01:15:34;14.95;;;10.43;;
15635;SDS011;7917;50.818;6.972;2022-08-21T01:18:07;14.30;;;10.27;;
15635;SDS011;7917;50.818;6.972;2022-08-21T01:20:36;16.45;;;9.77;;
15635;SDS011;7917;50.818;6.972;2022-08-21T01:23:06;12.10;;;7.38;;
15635;SDS011;7917;50.818;6.972;2022-08-21T01:25:34;16.70;;;7.63;;
15635;SDS011;7917;50.818;6.972;2022-08-21T01:28:02;28.20;;;7.00;;
15635;SDS011;7917;50.818;6.972;2022-08-21T01:30:35;9.73;;;6.68;;
15635;SDS011;7917;50.818;6.972;2022-08-21T01:33:04;9.85;;;6.72;;
15635;SDS011;7917;50.818;6.972;2022-08-21T01:35:31;11.07;;;6.70;;
15635;SDS011;7917;50.818;6.972;2022-08-21T01:37:59;14.68;;;6.18;;
15635;SDS011;7917;50.818;6.972;2022-08-21T01:40:27;10.57;;;6.20;;
15635;SDS011;7917;50.818;6.972;2022-08-21T01:42:55;14.20;;;7.43;;
15635;SDS011;7917;50.818;6.972;2022-08-21T01:45:22;9.75;;;7.00;;
15635;SDS011;7917;50.818;6.972;2022-08-21T01:47:49;13.82;;;7.10;;
15635;SDS011;7917;50.818;6.972;2022-08-21T01:50:17;13.45;;;7.60;;
15635;SDS011;7917;50.818;6.972;2022-08-21T01:53:00;12.48;;;7.22;;
15635;SDS011;7917;50.818;6.972;2022-08-21T01:55:28;11.77;;;6.72;;
15635;SDS011;7917;50.818;6.972;2022-08-21T01:57:56;10.85;;;6.57;;
15635;SDS011;7917;50.818;6.972;2022-08-21T02:00:27;12.52;;;7.32;;
15635;SDS011;7917;50.818;6.972;2022-08-21T02:02:54;10.48;;;6.85;;
15635;SDS011;7917;50.818;6.972;2022-08-21T02:05:22;9.13;;;7.07;;
15635;SDS011;7917;50.818;6.972;2022-08-21T02:07:50;11.70;;;6.82;;
15635;SDS011;7917;50.818;6.972;2022-08-21T02:10:20;14.38;;;6.22;;
15635;SDS011;7917;50.818;6.972;2022-08-21T02:12:50;12.07;;;6.80;;
15635;SDS011;7917;50.818;6.972;2022-08-21T02:15:18;13.63;;;7.03;;
15635;SDS011;7917;50.818;6.972;2022-08-21T02:17:46;11.50;;;6.45;;
15635;SDS011;7917;50.818;6.972;2022-08-21T02:20:16;15.02;;;7.15;;
15635;SDS011;7917;50.818;6.972;2022-08-21T02:22:45;11.80;;;6.93;;
15635;SDS011;7917;50.818;6.972;2022-08-21T02:25:12;12.65;;;7.28;;
15635;SDS011;7917;50.818;6.972;2022-08-21T02:27:40;16.83;;;7.38;;
15635;SDS011;7917;50.818;6.972;2022-08-21T02:30:12;11.13;;;6.13;;
15635;SDS011;7917;50.818;6.972;2022-08-21T02:32:42;9.07;;;6.43;;
15635;SDS011;7917;50.818;6.972;2022-08-21T02:35:09;9.77;;;6.35;;
15635;SDS011;7917;50.818;6.972;2022-08-21T02:37:45;13.00;;;6.65;;
15635;SDS011;7917;50.818;6.972;2022-08-21T02:40:14;13.02;;;7.35;;
15635;SDS011;7917;50.818;6.972;2022-08-21T02:42:42;9.48;;;6.70;;
15635;SDS011;7917;50.818;6.972;2022-08-21T02:45:10;10.35;;;6.45;;
15635;SDS011;7917;50.818;6.972;2022-08-21T02:47:40;9.43;;;6.57;;
15635;SDS011;7917;50.818;6.972;2022-08-21T02:50:13;15.63;;;7.63;;
15635;SDS011;7917;50.818;6.972;2022-08-21T02:52:45;10.85;;;6.40;;
15635;SDS011;7917;50.818;6.972;2022-08-21T02:55:12;11.93;;;6.90;;
15635;SDS011;7917;50.818;6.972;2022-08-21T02:57:40;12.27;;;7.03;;
15635;SDS011;7917;50.818;6.972;2022-08-21T03:00:07;12.18;;;7.28;;
15635;SDS011;7917;50.818;6.972;2022-08-21T03:02:52;11.02;;;7.18;;
15635;SDS011;7917;50.818;6.972;2022-08-21T03:05:21;13.23;;;7.13;;
15635;SDS011;7917;50.818;6.972;2022-08-21T03:07:48;9.38;;;6.38;;
15635;SDS011;7917;50.818;6.972;2022-08-21T03:10:16;11.23;;;6.88;;
15635;SDS011;7917;50.818;6.972;2022-08-21T03:12:44;14.32;;;6.68;;
15635;SDS011;7917;50.818;6.972;2022-08-21T03:15:12;8.93;;;7.32;;
15635;SDS011;7917;50.818;6.972;2022-08-21T03:17:42;11.15;;;7.15;;
15635;SDS011;7917;50.818;6.972;2022-08-21T03:20:12;13.20;;;7.18;;
15635;SDS011;7917;50.818;6.972;2022-08-21T03:22:40;11.23;;;6.60;;
15635;SDS011;7917;50.818;6.972;2022-08-21T03:25:08;13.95;;;7.57;;
15635;SDS011;7917;50.818;6.972;2022-08-21T03:27:36;12.00;;;7.70;;
15635;SDS011;7917;50.818;6.972;2022-08-21T03:30:04;9.80;;;7.38;;
15635;SDS011;7917;50.818;6.972;2022-08-21T03:32:34;13.07;;;8.15;;
15635;SDS011;7917;50.818;6.972;2022-08-21T03:35:02;15.52;;;7.40;;
15635;SDS011;7917;50.818;6.972;2022-08-21T03:37:31;12.75;;;7.45;;
15635;SDS011;7917;50.818;6.972;2022-08-21T03:39:59;9.70;;;6.80;;
15635;SDS011;7917;50.818;6.972;2022-08-21T03:42:26;13.00;;;7.60;;
15635;SDS011;7917;50.818;6.972;2022-08-21T03:44:53;13.65;;;8.43;;
15635;SDS011;7917;50.818;6.972;2022-08-21T03:47:20;16.08;;;7.63;;
15635;SDS011;7917;50.818;6.972;2022-08-21T03:49:48;11.95;;;7.75;;
15635;SDS011;7917;50.818;6.972;2022-08-21T03:52:15;17.77;;;7.75;;
15635;SDS011;7917;50.818;6.972;2022-08-21T03:54:44;13.52;;;7.72;;
15635;SDS011;7917;50.818;6.972;2022-08-21T03:57:11;16.77;;;8.35;;
15635;SDS011;7917;50.818;6.972;2022-08-21T03:59:39;16.20;;;9.20;;
15635;SDS011;7917;50.818;6.972;2022-08-21T04:02:06;12.52;;;8.75;;
15635;SDS011;7917;50.818;6.972;2022-08-21T04:04:33;8.23;;;7.40;;
15635;SDS011;7917;50.818;6.972;2022-08-21T04:07:00;14.02;;;8.05;;
15635;SDS011;7917;50.818;6.972;2022-08-21T04:09:28;17.40;;;8.82;;
15635;SDS011;7917;50.818;6.972;2022-08-21T04:11:57;13.02;;;7.90;;
15635;SDS011;7917;50.818;6.972;2022-08-21T04:14:26;11.77;;;8.07;;
15635;SDS011;7917;50.818;6.972;2022-08-21T04:16:53;15.65;;;7.25;;
15635;SDS011;7917;50.818;6.972;2022-08-21T04:19:20;10.68;;;7.68;;
15635;SDS011;7917;50.818;6.972;2022-08-21T04:21:48;10.43;;;7.60;;
15635;SDS011;7917;50.818;6.972;2022-08-21T04:24:15;10.95;;;7.35;;
15635;SDS011;7917;50.818;6.972;2022-08-21T04:26:42;14.15;;;7.53;;
15635;SDS011;7917;50.818;6.972;2022-08-21T04:29:11;11.55;;;7.65;;
15635;SDS011;7917;50.818;6.972;2022-08-21T04:31:38;15.68;;;7.60;;
15635;SDS011;7917;50.818;6.972;2022-08-21T04:34:08;14.95;;;8.57;;
15635;SDS011;7917;50.818;6.972;2022-08-21T04:36:36;14.57;;;8.40;;
15635;SDS011;7917;50.818;6.972;2022-08-21T04:39:04;14.23;;;7.80;;
15635;SDS011;7917;50.818;6.972;2022-08-21T04:41:31;13.68;;;7.93;;
15635;SDS011;7917;50.818;6.972;2022-08-21T04:43:58;13.57;;;7.85;;
15635;SDS011;7917;50.818;6.972;2022-08-21T04:46:27;11.73;;;8.20;;
15635;SDS011;7917;50.818;6.972;2022-08-21T04:48:54;14.35;;;8.30;;
15635;SDS011;7917;50.818;6.972;2022-08-21T04:51:22;12.55;;;7.95;;
15635;SDS011;7917;50.818;6.972;2022-08-21T04:53:54;15.10;;;8.05;;
15635;SDS011;7917;50.818;6.972;2022-08-21T04:56:27;14.10;;;8.52;;
15635;SDS011;7917;50.818;6.972;2022-08-21T04:58:58;14.60;;;8.65;;
15635;SDS011;7917;50.818;6.972;2022-08-21T05:01:31;14.52;;;8.63;;
15635;SDS011;7917;50.818;6.972;2022-08-21T05:04:00;14.50;;;9.40;;
15635;SDS011;7917;50.818;6.972;2022-08-21T05:06:31;12.23;;;7.95;;
15635;SDS011;7917;50.818;6.972;2022-08-21T05:09:03;11.85;;;8.45;;
15635;SDS011;7917;50.818;6.972;2022-08-21T05:11:31;13.45;;;8.43;;
15635;SDS011;7917;50.818;6.972;2022-08-21T05:14:00;10.88;;;9.40;;
15635;SDS011;7917;50.818;6.972;2022-08-21T05:16:27;11.98;;;9.30;;
15635;SDS011;7917;50.818;6.972;2022-08-21T05:18:55;11.43;;;8.75;;
15635;SDS011;7917;50.818;6.972;2022-08-21T05:21:23;17.50;;;9.82;;
15635;SDS011;7917;50.818;6.972;2022-08-21T05:23:50;11.15;;;9.27;;
15635;SDS011;7917;50.818;6.972;2022-08-21T05:26:17;14.13;;;8.88;;
15635;SDS011;7917;50.818;6.972;2022-08-21T05:28:46;14.27;;;10.07;;
15635;SDS011;7917;50.818;6.972;2022-08-21T05:31:24;16.15;;;10.45;;
15635;SDS011;7917;50.818;6.972;2022-08-21T05:33:51;16.13;;;9.98;;
15635;SDS011;7917;50.818;6.972;2022-08-21T05:36:27;12.10;;;8.57;;
15635;SDS011;7917;50.818;6.972;2022-08-21T05:38:54;11.88;;;8.80;;
15635;SDS011;7917;50.818;6.972;2022-08-21T05:41:21;16.42;;;9.30;;
15635;SDS011;7917;50.818;6.972;2022-08-21T05:43:48;12.40;;;8.55;;
15635;SDS011;7917;50.818;6.972;2022-08-21T05:46:16;12.98;;;8.32;;
15635;SDS011;7917;50.818;6.972;2022-08-21T05:48:43;11.20;;;7.95;;
15635;SDS011;7917;50.818;6.972;2022-08-21T05:51:12;12.90;;;7.57;;
15635;SDS011;7917;50.818;6.972;2022-08-21T05:53:41;15.20;;;8.45;;
15635;SDS011;7917;50.818;6.972;2022-08-21T05:56:08;12.98;;;7.78;;
15635;SDS011;7917;50.818;6.972;2022-08-21T05:58:37;13.30;;;8.82;;
15635;SDS011;7917;50.818;6.972;2022-08-21T06:01:04;11.55;;;7.80;;
15635;SDS011;7917;50.818;6.972;2022-08-21T06:03:34;12.43;;;6.95;;
15635;SDS011;7917;50.818;6.972;2022-08-21T06:06:03;14.98;;;7.45;;
15635;SDS011;7917;50.818;6.972;2022-08-21T06:08:30;15.05;;;7.82;;
15635;SDS011;7917;50.818;6.972;2022-08-21T06:10:59;14.05;;;8.73;;
15635;SDS011;7917;50.818;6.972;2022-08-21T06:13:27;13.40;;;6.90;;
15635;SDS011;7917;50.818;6.972;2022-08-21T06:16:00;14.80;;;7.13;;
15635;SDS011;7917;50.818;6.972;2022-08-21T06:18:30;12.38;;;6.65;;
15635;SDS011;7917;50.818;6.972;2022-08-21T06:20:57;11.48;;;7.18;;
15635;SDS011;7917;50.818;6.972;2022-08-21T06:23:27;10.13;;;6.72;;
15635;SDS011;7917;50.818;6.972;2022-08-21T06:26:14;10.02;;;6.43;;
15635;SDS011;7917;50.818;6.972;2022-08-21T06:28:42;14.13;;;6.45;;
15635;SDS011;7917;50.818;6.972;2022-08-21T06:31:10;10.70;;;7.00;;
15635;SDS011;7917;50.818;6.972;2022-08-21T06:33:38;15.50;;;6.13;;
15635;SDS011;7917;50.818;6.972;2022-08-21T06:36:06;12.05;;;5.25;;
15635;SDS011;7917;50.818;6.972;2022-08-21T06:38:35;10.50;;;6.50;;
15635;SDS011;7917;50.818;6.972;2022-08-21T06:41:03;10.05;;;5.90;;
15635;SDS011;7917;50.818;6.972;2022-08-21T06:43:31;12.82;;;6.20;;
15635;SDS011;7917;50.818;6.972;2022-08-21T06:45:58;7.82;;;5.40;;
15635;SDS011;7917;50.818;6.972;2022-08-21T06:48:26;11.32;;;6.15;;
15635;SDS011;7917;50.818;6.972;2022-08-21T06:50:54;8.48;;;6.32;;
15635;SDS011;7917;50.818;6.972;2022-08-21T06:53:22;7.95;;;5.35;;
15635;SDS011;7917;50.818;6.972;2022-08-21T06:55:49;10.45;;;4.95;;
15635;SDS011;7917;50.818;6.972;2022-08-21T06:58:16;7.20;;;4.95;;
15635;SDS011;7917;50.818;6.972;2022-08-21T07:00:48;13.35;;;5.70;;
15635;SDS011;7917;50.818;6.972;2022-08-21T07:03:18;12.68;;;5.30;;
15635;SDS011;7917;50.818;6.972;2022-08-21T07:05:47;8.88;;;4.50;;
15635;SDS011;7917;50.818;6.972;2022-08-21T07:08:14;8.35;;;4.50;;
15635;SDS011;7917;50.818;6.972;2022-08-21T07:10:41;11.23;;;4.20;;
15635;SDS011;7917;50.818;6.972;2022-08-21T07:13:09;11.40;;;4.97;;
15635;SDS011;7917;50.818;6.972;2022-08-21T07:15:39;11.23;;;4.63;;
15635;SDS011;7917;50.818;6.972;2022-08-21T07:18:08;7.45;;;3.95;;
15635;SDS011;7917;50.818;6.972;2022-08-21T07:20:35;7.50;;;3.83;;
15635;SDS011;7917;50.818;6.972;2022-08-21T07:23:08;5.93;;;3.60;;
15635;SDS011;7917;50.818;6.972;2022-08-21T07:25:38;9.65;;;3.47;;
15635;SDS011;7917;50.818;6.972;2022-08-21T07:28:06;9.18;;;4.18;;
15635;SDS011;7917;50.818;6.972;2022-08-21T07:30:35;6.85;;;3.00;;
15635;SDS011;7917;50.818;6.972;2022-08-21T07:33:02;8.85;;;2.60;;
15635;SDS011;7917;50.818;6.972;2022-08-21T07:35:31;7.18;;;2.40;;
15635;SDS011;7917;50.818;6.972;2022-08-21T07:37:58;5.85;;;2.83;;
15635;SDS011;7917;50.818;6.972;2022-08-21T07:40:25;12.00;;;3.00;;
15635;SDS011;7917;50.818;6.972;2022-08-21T07:42:52;8.02;;;2.80;;
15635;SDS011;7917;50.818;6.972;2022-08-21T07:45:20;5.50;;;2.47;;
15635;SDS011;7917;50.818;6.972;2022-08-21T07:47:49;6.70;;;2.72;;
15635;SDS011;7917;50.818;6.972;2022-08-21T07:50:18;5.10;;;2.58;;
15635;SDS011;7917;50.818;6.972;2022-08-21T07:52:47;6.30;;;2.40;;
15635;SDS011;7917;50.818;6.972;2022-08-21T07:55:15;4.85;;;2.30;;
15635;SDS011;7917;50.818;6.972;2022-08-21T07:57:43;7.20;;;2.70;;
15635;SDS011;7917;50.818;6.972;2022-08-21T08:00:11;8.85;;;2.90;;
15635;SDS011;7917;50.818;6.972;2022-08-21T08:02:43;4.93;;;2.40;;
15635;SDS011;7917;50.818;6.972;2022-08-21T08:05:14;9.00;;;2.50;;
15635;SDS011;7917;50.818;6.972;2022-08-21T08:07:45;6.38;;;2.33;;
15635;SDS011;7917;50.818;6.972;2022-08-21T08:10:18;5.22;;;2.38;;
15635;SDS011;7917;50.818;6.972;2022-08-21T08:12:45;5.72;;;2.58;;
15635;SDS011;7917;50.818;6.972;2022-08-21T08:15:14;4.35;;;2.00;;
15635;SDS011;7917;50.818;6.972;2022-08-21T08:17:47;5.45;;;2.42;;
15635;SDS011;7917;50.818;6.972;2022-08-21T08:20:17;3.65;;;2.08;;
15635;SDS011;7917;50.818;6.972;2022-08-21T08:22:49;6.95;;;2.03;;
15635;SDS011;7917;50.818;6.972;2022-08-21T08:25:16;4.60;;;1.65;;
15635;SDS011;7917;50.818;6.972;2022-08-21T08:27:45;7.25;;;1.85;;
15635;SDS011;7917;50.818;6.972;2022-08-21T08:30:13;5.95;;;2.13;;
15635;SDS011;7917;50.818;6.972;2022-08-21T08:32:45;5.53;;;2.40;;
15635;SDS011;7917;50.818;6.972;2022-08-21T08:35:13;8.40;;;2.28;;
15635;SDS011;7917;50.818;6.972;2022-08-21T08:37:40;7.75;;;2.40;;
15635;SDS011;7917;50.818;6.972;2022-08-21T08:40:13;4.82;;;2.33;;
15635;SDS011;7917;50.818;6.972;2022-08-21T08:42:44;6.03;;;2.00;;
15635;SDS011;7917;50.818;6.972;2022-08-21T08:45:13;5.00;;;1.85;;
15635;SDS011;7917;50.818;6.972;2022-08-21T08:47:46;11.30;;;2.60;;
15635;SDS011;7917;50.818;6.972;2022-08-21T08:50:17;5.60;;;1.98;;
15635;SDS011;7917;50.818;6.972;2022-08-21T08:52:51;7.57;;;2.10;;
15635;SDS011;7917;50.818;6.972;2022-08-21T08:55:28;10.60;;;2.22;;
15635;SDS011;7917;50.818;6.972;2022-08-21T08:58:04;7.32;;;2.17;;
15635;SDS011;7917;50.818;6.972;2022-08-21T09:00:31;6.18;;;2.20;;
15635;SDS011;7917;50.818;6.972;2022-08-21T09:02:59;6.15;;;2.10;;
15635;SDS011;7917;50.818;6.972;2022-08-21T09:05:32;6.50;;;2.10;;
15635;SDS011;7917;50.818;6.972;2022-08-21T09:08:28;6.03;;;2.13;;
15635;SDS011;7917;50.818;6.972;2022-08-21T09:11:10;6.95;;;2.33;;
15635;SDS011;7917;50.818;6.972;2022-08-21T09:13:44;5.53;;;1.75;;
15635;SDS011;7917;50.818;6.972;2022-08-21T09:16:20;6.43;;;1.90;;
15635;SDS011;7917;50.818;6.972;2022-08-21T09:19:03;6.90;;;2.15;;
15635;SDS011;7917;50.818;6.972;2022-08-21T09:21:37;4.70;;;1.80;;
15635;SDS011;7917;50.818;6.972;2022-08-21T09:24:16;5.38;;;2.03;;
15635;SDS011;7917;50.818;6.972;2022-08-21T09:26:57;6.95;;;2.25;;
15635;SDS011;7917;50.818;6.972;2022-08-21T09:29:32;6.65;;;1.77;;
15635;SDS011;7917;50.818;6.972;2022-08-21T09:32:02;5.07;;;1.75;;
15635;SDS011;7917;50.818;6.972;2022-08-21T09:34:30;4.88;;;2.17;;
15635;SDS011;7917;50.818;6.972;2022-08-21T09:36:57;6.43;;;2.25;;
15635;SDS011;7917;50.818;6.972;2022-08-21T09:39:26;6.22;;;1.98;;
15635;SDS011;7917;50.818;6.972;2022-08-21T09:41:56;7.70;;;2.60;;
15635;SDS011;7917;50.818;6.972;2022-08-21T09:44:26;6.30;;;1.90;;
15635;SDS011;7917;50.818;6.972;2022-08-21T09:46:54;8.88;;;2.38;;
15635;SDS011;7917;50.818;6.972;2022-08-21T09:49:27;4.53;;;1.80;;
15635;SDS011;7917;50.818;6.972;2022-08-21T09:51:56;7.97;;;2.05;;
15635;SDS011;7917;50.818;6.972;2022-08-21T09:54:26;5.82;;;1.90;;
15635;SDS011;7917;50.818;6.972;2022-08-21T09:56:58;10.40;;;2.28;;
15635;SDS011;7917;50.818;6.972;2022-08-21T09:59:44;5.03;;;2.00;;
15635;SDS011;7917;50.818;6.972;2022-08-21T10:05:03;6.28;;;1.65;;
15635;SDS011;7917;50.818;6.972;2022-08-21T10:07:36;6.53;;;2.03;;
15635;SDS011;7917;50.818;6.972;2022-08-21T10:10:05;4.70;;;1.88;;
15635;SDS011;7917;50.818;6.972;2022-08-21T10:12:42;4.22;;;1.58;;
15635;SDS011;7917;50.818;6.972;2022-08-21T10:15:18;6.38;;;2.45;;
15635;SDS011;7917;50.818;6.972;2022-08-21T10:17:52;6.75;;;2.00;;
15635;SDS011;7917;50.818;6.972;2022-08-21T10:20:32;11.55;;;2.25;;
15635;SDS011;7917;50.818;6.972;2022-08-21T10:23:20;6.78;;;1.98;;
15635;SDS011;7917;50.818;6.972;2022-08-21T10:26:02;7.35;;;1.65;;
15635;SDS011;7917;50.818;6.972;2022-08-21T10:28:39;7.00;;;2.00;;
15635;SDS011;7917;50.818;6.972;2022-08-21T10:31:12;5.53;;;2.10;;
15635;SDS011;7917;50.818;6.972;2022-08-21T10:33:50;4.07;;;1.88;;
15635;SDS011;7917;50.818;6.972;2022-08-21T10:36:27;5.55;;;1.80;;
15635;SDS011;7917;50.818;6.972;2022-08-21T10:39:03;3.67;;;1.42;;
15635;SDS011;7917;50.818;6.972;2022-08-21T10:41:45;7.93;;;1.80;;
15635;SDS011;7917;50.818;6.972;2022-08-21T10:44:30;4.80;;;1.65;;
15635;SDS011;7917;50.818;6.972;2022-08-21T10:47:05;4.05;;;2.10;;
15635;SDS011;7917;50.818;6.972;2022-08-21T10:49:38;7.82;;;1.73;;
15635;SDS011;7917;50.818;6.972;2022-08-21T10:52:21;5.32;;;1.77;;
15635;SDS011;7917;50.818;6.972;2022-08-21T10:55:06;3.65;;;1.40;;
15635;SDS011;7917;50.818;6.972;2022-08-21T10:57:39;4.82;;;2.00;;
15635;SDS011;7917;50.818;6.972;2022-08-21T11:00:12;4.50;;;1.63;;
15635;SDS011;7917;50.818;6.972;2022-08-21T11:02:45;4.88;;;1.50;;
15635;SDS011;7917;50.818;6.972;2022-08-21T11:05:17;7.78;;;1.85;;
15635;SDS011;7917;50.818;6.972;2022-08-21T11:07:51;3.75;;;1.70;;
15635;SDS011;7917;50.818;6.972;2022-08-21T11:10:23;3.72;;;1.58;;
15635;SDS011;7917;50.818;6.972;2022-08-21T11:12:53;7.38;;;2.00;;
15635;SDS011;7917;50.818;6.972;2022-08-21T11:15:36;7.50;;;5.22;;
15635;SDS011;7917;50.818;6.972;2022-08-21T11:18:15;5.15;;;1.63;;
15635;SDS011;7917;50.818;6.972;2022-08-21T11:20:49;4.72;;;2.03;;
15635;SDS011;7917;50.818;6.972;2022-08-21T11:23:24;6.63;;;1.92;;
15635;SDS011;7917;50.818;6.972;2022-08-21T11:25:58;5.10;;;1.50;;
15635;SDS011;7917;50.818;6.972;2022-08-21T11:28:29;7.00;;;1.90;;
15635;SDS011;7917;50.818;6.972;2022-08-21T11:31:02;4.88;;;1.85;;
15635;SDS011;7917;50.818;6.972;2022-08-21T11:33:49;3.53;;;1.80;;
15635;SDS011;7917;50.818;6.972;2022-08-21T11:36:26;4.53;;;1.70;;
15635;SDS011;7917;50.818;6.972;2022-08-21T11:39:01;9.88;;;1.85;;
15635;SDS011;7917;50.818;6.972;2022-08-21T11:41:39;4.63;;;1.58;;
15635;SDS011;7917;50.818;6.972;2022-08-21T11:44:11;5.25;;;1.90;;
15635;SDS011;7917;50.818;6.972;2022-08-21T11:46:47;3.25;;;1.50;;
15635;SDS011;7917;50.818;6.972;2022-08-21T11:49:34;4.53;;;1.60;;
15635;SDS011;7917;50.818;6.972;2022-08-21T11:52:14;4.95;;;1.42;;
15635;SDS011;7917;50.818;6.972;2022-08-21T11:54:48;3.03;;;1.52;;
15635;SDS011;7917;50.818;6.972;2022-08-21T11:57:22;4.13;;;1.20;;
15635;SDS011;7917;50.818;6.972;2022-08-21T11:59:58;6.22;;;1.77;;
15635;SDS011;7917;50.818;6.972;2022-08-21T12:02:31;4.28;;;1.70;;
15635;SDS011;7917;50.818;6.972;2022-08-21T12:05:03;4.45;;;1.25;;
15635;SDS011;7917;50.818;6.972;2022-08-21T12:07:34;4.50;;;1.65;;
15635;SDS011;7917;50.818;6.972;2022-08-21T12:10:04;6.75;;;1.52;;
15635;SDS011;7917;50.818;6.972;2022-08-21T12:12:35;3.80;;;1.52;;
15635;SDS011;7917;50.818;6.972;2022-08-21T12:15:11;3.42;;;1.45;;
15635;SDS011;7917;50.818;6.972;2022-08-21T12:17:53;4.13;;;1.35;;
15635;SDS011;7917;50.818;6.972;2022-08-21T12:20:26;2.33;;;1.10;;
15635;SDS011;7917;50.818;6.972;2022-08-21T12:23:26;4.22;;;1.52;;
15635;SDS011;7917;50.818;6.972;2022-08-21T12:26:10;4.78;;;1.40;;
15635;SDS011;7917;50.818;6.972;2022-08-21T12:28:45;5.00;;;1.42;;
15635;SDS011;7917;50.818;6.972;2022-08-21T12:31:17;7.00;;;1.60;;
15635;SDS011;7917;50.818;6.972;2022-08-21T12:33:51;4.88;;;1.60;;
15635;SDS011;7917;50.818;6.972;2022-08-21T12:36:24;3.90;;;1.48;;
15635;SDS011;7917;50.818;6.972;2022-08-21T12:39:11;5.30;;;1.40;;
15635;SDS011;7917;50.818;6.972;2022-08-21T12:41:45;6.35;;;1.60;;
15635;SDS011;7917;50.818;6.972;2022-08-21T12:44:17;4.57;;;1.60;;
15635;SDS011;7917;50.818;6.972;2022-08-21T12:46:51;4.82;;;1.73;;
15635;SDS011;7917;50.818;6.972;2022-08-21T12:49:26;5.15;;;1.23;;
15635;SDS011;7917;50.818;6.972;2022-08-21T12:52:01;5.78;;;1.40;;
15635;SDS011;7917;50.818;6.972;2022-08-21T12:54:36;2.80;;;1.20;;
15635;SDS011;7917;50.818;6.972;2022-08-21T12:57:06;4.63;;;1.27;;
15635;SDS011;7917;50.818;6.972;2022-08-21T12:59:36;7.70;;;1.73;;
15635;SDS011;7917;50.818;6.972;2022-08-21T13:02:09;4.53;;;1.50;;
15635;SDS011;7917;50.818;6.972;2022-08-21T13:04:46;5.85;;;1.85;;
15635;SDS011;7917;50.818;6.972;2022-08-21T13:07:16;4.90;;;2.05;;
15635;SDS011;7917;50.818;6.972;2022-08-21T13:09:50;4.55;;;1.55;;
15635;SDS011;7917;50.818;6.972;2022-08-21T13:12:20;4.07;;;1.30;;
15635;SDS011;7917;50.818;6.972;2022-08-21T13:14:49;2.80;;;1.27;;
15635;SDS011;7917;50.818;6.972;2022-08-21T13:17:22;3.03;;;1.40;;
15635;SDS011;7917;50.818;6.972;2022-08-21T13:19:57;4.07;;;1.70;;
15635;SDS011;7917;50.818;6.972;2022-08-21T13:22:26;4.25;;;1.55;;
15635;SDS011;7917;50.818;6.972;2022-08-21T13:24:53;4.13;;;1.55;;
15635;SDS011;7917;50.818;6.972;2022-08-21T13:27:22;3.65;;;1.48;;
15635;SDS011;7917;50.818;6.972;2022-08-21T13:30:06;5.75;;;1.38;;
15635;SDS011;7917;50.818;6.972;2022-08-21T13:32:36;3.20;;;1.48;;
15635;SDS011;7917;50.818;6.972;2022-08-21T13:35:15;3.55;;;1.27;;
15635;SDS011;7917;50.818;6.972;2022-08-21T13:37:48;3.78;;;1.58;;
15635;SDS011;7917;50.818;6.972;2022-08-21T13:40:17;2.95;;;1.33;;
15635;SDS011;7917;50.818;6.972;2022-08-21T13:42:48;4.07;;;1.88;;
15635;SDS011;7917;50.818;6.972;2022-08-21T13:45:17;5.30;;;1.70;;
15635;SDS011;7917;50.818;6.972;2022-08-21T13:47:49;5.60;;;1.50;;
15635;SDS011;7917;50.818;6.972;2022-08-21T13:50:19;4.32;;;1.30;;
15635;SDS011;7917;50.818;6.972;2022-08-21T13:52:54;4.43;;;1.60;;
15635;SDS011;7917;50.818;6.972;2022-08-21T13:55:24;2.13;;;1.10;;
15635;SDS011;7917;50.818;6.972;2022-08-21T13:57:58;7.00;;;1.70;;
15635;SDS011;7917;50.818;6.972;2022-08-21T14:00:27;5.47;;;1.52;;
15635;SDS011;7917;50.818;6.972;2022-08-21T14:02:59;3.45;;;1.83;;
15635;SDS011;7917;50.818;6.972;2022-08-21T14:05:33;4.90;;;1.45;;
15635;SDS011;7917;50.818;6.972;2022-08-21T14:08:03;3.40;;;1.40;;
15635;SDS011;7917;50.818;6.972;2022-08-21T14:10:35;3.55;;;1.85;;
15635;SDS011;7917;50.818;6.972;2022-08-21T14:13:07;3.83;;;1.42;;
15635;SDS011;7917;50.818;6.972;2022-08-21T14:15:46;3.45;;;1.60;;
15635;SDS011;7917;50.818;6.972;2022-08-21T14:18:23;4.97;;;1.88;;
15635;SDS011;7917;50.818;6.972;2022-08-21T14:20:57;4.80;;;1.55;;
15635;SDS011;7917;50.818;6.972;2022-08-21T14:23:31;6.07;;;1.58;;
15635;SDS011;7917;50.818;6.972;2022-08-21T14:25:58;4.05;;;1.33;;
15635;SDS011;7917;50.818;6.972;2022-08-21T14:28:28;6.85;;;1.80;;
15635;SDS011;7917;50.818;6.972;2022-08-21T14:30:57;4.07;;;1.65;;
15635;SDS011;7917;50.818;6.972;2022-08-21T14:33:37;5.93;;;1.33;;
15635;SDS011;7917;50.818;6.972;2022-08-21T14:36:06;5.32;;;1.73;;
15635;SDS011;7917;50.818;6.972;2022-08-21T14:38:34;2.65;;;1.40;;
15635;SDS011;7917;50.818;6.972;2022-08-21T14:41:04;7.90;;;1.90;;
15635;SDS011;7917;50.818;6.972;2022-08-21T14:43:41;5.85;;;1.80;;
15635;SDS011;7917;50.818;6.972;2022-08-21T14:46:09;9.98;;;2.00;;
15635;SDS011;7917;50.818;6.972;2022-08-21T14:48:38;5.72;;;2.33;;
15635;SDS011;7917;50.818;6.972;2022-08-21T14:51:06;4.63;;;1.52;;
15635;SDS011;7917;50.818;6.972;2022-08-21T14:53:33;4.28;;;1.50;;
15635;SDS011;7917;50.818;6.972;2022-08-21T14:56:00;4.13;;;1.45;;
15635;SDS011;7917;50.818;6.972;2022-08-21T14:58:31;5.90;;;1.60;;
15635;SDS011;7917;50.818;6.972;2022-08-21T15:00:59;3.22;;;1.30;;
15635;SDS011;7917;50.818;6.972;2022-08-21T15:03:29;4.40;;;1.50;;
15635;SDS011;7917;50.818;6.972;2022-08-21T15:05:57;6.22;;;1.90;;
15635;SDS011;7917;50.818;6.972;2022-08-21T15:08:26;4.15;;;1.55;;
15635;SDS011;7917;50.818;6.972;2022-08-21T15:11:06;3.45;;;1.60;;
15635;SDS011;7917;50.818;6.972;2022-08-21T15:13:35;3.75;;;1.52;;
15635;SDS011;7917;50.818;6.972;2022-08-21T15:16:05;4.55;;;1.60;;
15635;SDS011;7917;50.818;6.972;2022-08-21T15:18:34;5.13;;;1.30;;
15635;SDS011;7917;50.818;6.972;2022-08-21T15:21:01;4.55;;;1.30;;